sensor_id;sensor_type;location;lat;lon;timestamp;P1;durP1;ratioP1;P2;durP2;ratioP2
44366;SDS011;30086;57.660;12.000;2022-09-13T00:00:47;17.00;;;8.35;;
44366;SDS011;30086;57.660;12.000;2022-09-13T00:03:13;17.17;;;8.68;;
44366;SDS011;30086;57.660;12.000;2022-09-13T00:05:39;18.38;;;9.25;;
44366;SDS011;30086;57.660;12.000;2022-09-13T00:08:05;16.48;;;8.85;;
44366;SDS011;30086;57.660;12.000;2022-09-13T00:10:32;21.17;;;9.52;;
44366;SDS011;30086;57.660;12.000;2022-09-13T00:12:59;21.48;;;9.00;;
44366;SDS011;30086;57.660;12.000;2022-09-13T00:15:25;19.20;;;9.77;;
44366;SDS011;30086;57.660;12.000;2022-09-13T00:17:51;0.43;;;0.43;;
44366;SDS011;30086;57.660;12.000;2022-09-13T00:20:17;0.00;;;0.00;;
44366;SDS011;30086;57.660;12.000;2022-09-13T00:22:43;0.47;;;0.47;;
44366;SDS011;30086;57.660;12.000;2022-09-13T00:25:09;0.38;;;0.20;;
44366;SDS011;30086;57.660;12.000;2022-09-13T00:27:36;0.10;;;0.10;;
44366;SDS011;30086;57.660;12.000;2022-09-13T00:30:06;0.10;;;0.10;;
44366;SDS011;30086;57.660;12.000;2022-09-13T00:32:33;0.00;;;0.00;;
44366;SDS011;30086;57.660;12.000;2022-09-13T00:35:00;0.10;;;0.10;;
44366;SDS011;30086;57.660;12.000;2022-09-13T00:37:29;0.00;;;0.00;;
44366;SDS011;30086;57.660;12.000;2022-09-13T00:39:56;0.00;;;0.00;;
44366;SDS011;30086;57.660;12.000;2022-09-13T00:42:26;0.00;;;0.00;;
44366;SDS011;30086;57.660;12.000;2022-09-13T00:44:54;0.00;;;0.00;;
44366;SDS011;30086;57.660;12.000;2022-09-13T00:50:23;0.00;;;0.00;;
44366;SDS011;30086;57.660;12.000;2022-09-13T00:53:00;0.10;;;0.10;;
44366;SDS011;30086;57.660;12.000;2022-09-13T00:55:34;0.00;;;0.00;;
44366;SDS011;30086;57.660;12.000;2022-09-13T00:58:04;22.23;;;10.32;;
44366;SDS011;30086;57.660;12.000;2022-09-13T01:00:31;17.70;;;10.27;;
44366;SDS011;30086;57.660;12.000;2022-09-13T01:02:58;0.10;;;0.10;;
44366;SDS011;30086;57.660;12.000;2022-09-13T01:05:27;0.17;;;0.17;;
44366;SDS011;30086;57.660;12.000;2022-09-13T01:07:55;0.10;;;0.10;;
44366;SDS011;30086;57.660;12.000;2022-09-13T01:10:21;0.10;;;0.10;;
44366;SDS011;30086;57.660;12.000;2022-09-13T01:12:53;0.00;;;0.00;;
44366;SDS011;30086;57.660;12.000;2022-09-13T01:15:22;0.20;;;0.20;;
44366;SDS011;30086;57.660;12.000;2022-09-13T01:17:48;0.00;;;0.00;;
44366;SDS011;30086;57.660;12.000;2022-09-13T01:20:15;19.15;;;10.10;;
44366;SDS011;30086;57.660;12.000;2022-09-13T01:33:27;12.70;;;6.78;;
44366;SDS011;30086;57.660;12.000;2022-09-13T01:36:04;27.52;;;9.68;;
44366;SDS011;30086;57.660;12.000;2022-09-13T01:38:39;19.08;;;9.05;;
44366;SDS011;30086;57.660;12.000;2022-09-13T01:43:40;24.08;;;9.18;;
44366;SDS011;30086;57.660;12.000;2022-09-13T01:46:17;0.20;;;0.20;;
44366;SDS011;30086;57.660;12.000;2022-09-13T01:49:01;0.03;;;0.03;;
44366;SDS011;30086;57.660;12.000;2022-09-13T01:51:32;0.13;;;0.13;;
44366;SDS011;30086;57.660;12.000;2022-09-13T01:54:07;0.10;;;0.10;;
44366;SDS011;30086;57.660;12.000;2022-09-13T01:56:40;0.20;;;0.20;;
44366;SDS011;30086;57.660;12.000;2022-09-13T02:01:38;0.60;;;0.30;;
44366;SDS011;30086;57.660;12.000;2022-09-13T02:04:06;0.63;;;0.63;;
44366;SDS011;30086;57.660;12.000;2022-09-13T02:09:40;0.08;;;0.08;;
44366;SDS011;30086;57.660;12.000;2022-09-13T02:12:10;0.00;;;0.00;;
44366;SDS011;30086;57.660;12.000;2022-09-13T02:14:39;0.00;;;0.00;;
44366;SDS011;30086;57.660;12.000;2022-09-13T02:17:07;0.00;;;0.00;;
44366;SDS011;30086;57.660;12.000;2022-09-13T02:19:40;0.00;;;0.00;;
44366;SDS011;30086;57.660;12.000;2022-09-13T02:22:07;0.00;;;0.00;;
44366;SDS011;30086;57.660;12.000;2022-09-13T02:24:41;0.00;;;0.00;;
44366;SDS011;30086;57.660;12.000;2022-09-13T02:27:14;0.10;;;0.10;;
44366;SDS011;30086;57.660;12.000;2022-09-13T02:29:43;0.10;;;0.10;;
44366;SDS011;30086;57.660;12.000;2022-09-13T02:32:13;0.10;;;0.10;;
44366;SDS011;30086;57.660;12.000;2022-09-13T02:34:42;0.05;;;0.05;;
44366;SDS011;30086;57.660;12.000;2022-09-13T02:37:10;0.20;;;0.20;;
44366;SDS011;30086;57.660;12.000;2022-09-13T02:39:40;0.00;;;0.00;;
44366;SDS011;30086;57.660;12.000;2022-09-13T02:42:20;0.00;;;0.00;;
44366;SDS011;30086;57.660;12.000;2022-09-13T02:44:49;0.10;;;0.10;;
44366;SDS011;30086;57.660;12.000;2022-09-13T02:47:32;0.35;;;0.35;;
44366;SDS011;30086;57.660;12.000;2022-09-13T02:58:19;0.03;;;0.03;;
44366;SDS011;30086;57.660;12.000;2022-09-13T03:00:46;0.20;;;0.20;;
44366;SDS011;30086;57.660;12.000;2022-09-13T03:03:13;0.00;;;0.00;;
44366;SDS011;30086;57.660;12.000;2022-09-13T03:05:40;45.90;;;8.65;;
44366;SDS011;30086;57.660;12.000;2022-09-13T03:08:07;29.85;;;8.05;;
44366;SDS011;30086;57.660;12.000;2022-09-13T03:10:47;27.60;;;12.35;;
44366;SDS011;30086;57.660;12.000;2022-09-13T03:15:57;27.08;;;12.88;;
44366;SDS011;30086;57.660;12.000;2022-09-13T03:18:32;23.75;;;5.38;;
44366;SDS011;30086;57.660;12.000;2022-09-13T03:21:16;22.58;;;7.22;;
44366;SDS011;30086;57.660;12.000;2022-09-13T03:28:54;15.13;;;7.57;;
44366;SDS011;30086;57.660;12.000;2022-09-13T03:31:34;18.52;;;6.93;;
44366;SDS011;30086;57.660;12.000;2022-09-13T03:34:23;7.72;;;2.20;;
44366;SDS011;30086;57.660;12.000;2022-09-13T03:36:59;13.07;;;2.35;;
44366;SDS011;30086;57.660;12.000;2022-09-13T03:41:58;5.32;;;1.30;;
44366;SDS011;30086;57.660;12.000;2022-09-13T03:44:27;6.68;;;1.95;;
44366;SDS011;30086;57.660;12.000;2022-09-13T03:46:56;1.13;;;0.80;;
44366;SDS011;30086;57.660;12.000;2022-09-13T03:49:22;0.00;;;0.00;;
44366;SDS011;30086;57.660;12.000;2022-09-13T03:51:50;10.95;;;2.70;;
44366;SDS011;30086;57.660;12.000;2022-09-13T03:54:21;8.85;;;1.98;;
44366;SDS011;30086;57.660;12.000;2022-09-13T03:59:33;10.30;;;1.77;;
44366;SDS011;30086;57.660;12.000;2022-09-13T04:02:01;4.95;;;1.70;;
44366;SDS011;30086;57.660;12.000;2022-09-13T04:04:27;9.90;;;1.80;;
44366;SDS011;30086;57.660;12.000;2022-09-13T04:06:53;9.65;;;2.47;;
44366;SDS011;30086;57.660;12.000;2022-09-13T04:09:21;5.53;;;1.63;;
44366;SDS011;30086;57.660;12.000;2022-09-13T04:11:47;7.43;;;3.22;;
44366;SDS011;30086;57.660;12.000;2022-09-13T04:14:13;5.63;;;2.03;;
44366;SDS011;30086;57.660;12.000;2022-09-13T04:16:40;9.25;;;2.50;;
44366;SDS011;30086;57.660;12.000;2022-09-13T04:19:06;6.20;;;2.58;;
44366;SDS011;30086;57.660;12.000;2022-09-13T04:21:32;7.18;;;2.45;;
44366;SDS011;30086;57.660;12.000;2022-09-13T04:23:58;9.40;;;2.78;;
44366;SDS011;30086;57.660;12.000;2022-09-13T04:26:24;9.40;;;3.13;;
44366;SDS011;30086;57.660;12.000;2022-09-13T04:28:54;9.43;;;3.65;;
44366;SDS011;30086;57.660;12.000;2022-09-13T04:31:20;7.15;;;1.88;;
44366;SDS011;30086;57.660;12.000;2022-09-13T04:33:46;5.93;;;2.30;;
44366;SDS011;30086;57.660;12.000;2022-09-13T04:36:12;6.07;;;1.90;;
44366;SDS011;30086;57.660;12.000;2022-09-13T04:38:38;3.75;;;1.55;;
44366;SDS011;30086;57.660;12.000;2022-09-13T04:41:04;6.68;;;1.50;;
44366;SDS011;30086;57.660;12.000;2022-09-13T04:43:31;4.15;;;1.65;;
44366;SDS011;30086;57.660;12.000;2022-09-13T04:46:00;3.40;;;2.03;;
44366;SDS011;30086;57.660;12.000;2022-09-13T04:48:26;3.72;;;1.48;;
44366;SDS011;30086;57.660;12.000;2022-09-13T04:50:52;3.72;;;1.40;;
44366;SDS011;30086;57.660;12.000;2022-09-13T04:53:18;7.05;;;1.60;;
44366;SDS011;30086;57.660;12.000;2022-09-13T04:55:44;9.65;;;1.65;;
44366;SDS011;30086;57.660;12.000;2022-09-13T04:58:10;6.13;;;2.70;;
44366;SDS011;30086;57.660;12.000;2022-09-13T05:00:36;6.70;;;3.00;;
44366;SDS011;30086;57.660;12.000;2022-09-13T05:03:02;5.95;;;1.90;;
44366;SDS011;30086;57.660;12.000;2022-09-13T05:05:29;3.80;;;1.58;;
44366;SDS011;30086;57.660;12.000;2022-09-13T05:07:56;4.40;;;2.78;;
44366;SDS011;30086;57.660;12.000;2022-09-13T05:10:22;10.90;;;3.35;;
44366;SDS011;30086;57.660;12.000;2022-09-13T05:12:48;7.25;;;3.30;;
44366;SDS011;30086;57.660;12.000;2022-09-13T05:15:14;10.43;;;2.20;;
44366;SDS011;30086;57.660;12.000;2022-09-13T05:17:40;6.57;;;1.73;;
44366;SDS011;30086;57.660;12.000;2022-09-13T05:20:07;3.60;;;1.40;;
44366;SDS011;30086;57.660;12.000;2022-09-13T05:22:33;6.10;;;1.25;;
44366;SDS011;30086;57.660;12.000;2022-09-13T05:24:59;7.72;;;1.48;;
44366;SDS011;30086;57.660;12.000;2022-09-13T05:27:25;6.95;;;2.15;;
44366;SDS011;30086;57.660;12.000;2022-09-13T05:29:51;7.15;;;1.58;;
44366;SDS011;30086;57.660;12.000;2022-09-13T05:32:17;6.60;;;2.22;;
44366;SDS011;30086;57.660;12.000;2022-09-13T05:34:43;8.23;;;2.50;;
44366;SDS011;30086;57.660;12.000;2022-09-13T05:37:09;8.55;;;2.17;;
44366;SDS011;30086;57.660;12.000;2022-09-13T05:39:35;5.82;;;2.35;;
44366;SDS011;30086;57.660;12.000;2022-09-13T05:42:02;8.35;;;2.22;;
44366;SDS011;30086;57.660;12.000;2022-09-13T05:44:28;8.48;;;2.08;;
44366;SDS011;30086;57.660;12.000;2022-09-13T05:46:54;9.40;;;1.77;;
44366;SDS011;30086;57.660;12.000;2022-09-13T05:49:20;4.75;;;1.65;;
44366;SDS011;30086;57.660;12.000;2022-09-13T05:51:46;7.63;;;2.15;;
44366;SDS011;30086;57.660;12.000;2022-09-13T05:54:12;3.25;;;1.63;;
44366;SDS011;30086;57.660;12.000;2022-09-13T05:56:38;4.78;;;1.35;;
44366;SDS011;30086;57.660;12.000;2022-09-13T05:59:04;5.75;;;2.05;;
44366;SDS011;30086;57.660;12.000;2022-09-13T06:01:31;11.05;;;1.85;;
44366;SDS011;30086;57.660;12.000;2022-09-13T06:03:58;9.20;;;1.80;;
44366;SDS011;30086;57.660;12.000;2022-09-13T06:06:25;7.88;;;1.38;;
44366;SDS011;30086;57.660;12.000;2022-09-13T06:08:52;8.93;;;2.40;;
44366;SDS011;30086;57.660;12.000;2022-09-13T06:11:20;11.25;;;1.70;;
44366;SDS011;30086;57.660;12.000;2022-09-13T06:13:47;9.35;;;1.65;;
44366;SDS011;30086;57.660;12.000;2022-09-13T06:16:13;12.60;;;1.75;;
44366;SDS011;30086;57.660;12.000;2022-09-13T06:18:40;10.02;;;2.15;;
44366;SDS011;30086;57.660;12.000;2022-09-13T06:21:07;7.57;;;1.88;;
44366;SDS011;30086;57.660;12.000;2022-09-13T06:23:34;5.18;;;2.20;;
44366;SDS011;30086;57.660;12.000;2022-09-13T06:26:07;10.52;;;1.50;;
44366;SDS011;30086;57.660;12.000;2022-09-13T06:28:40;8.48;;;1.88;;
44366;SDS011;30086;57.660;12.000;2022-09-13T06:31:12;3.72;;;0.93;;
44366;SDS011;30086;57.660;12.000;2022-09-13T06:33:44;8.35;;;1.65;;
44366;SDS011;30086;57.660;12.000;2022-09-13T06:36:15;4.07;;;1.00;;
44366;SDS011;30086;57.660;12.000;2022-09-13T06:38:47;14.75;;;2.05;;
44366;SDS011;30086;57.660;12.000;2022-09-13T06:41:14;5.10;;;1.25;;
44366;SDS011;30086;57.660;12.000;2022-09-13T06:43:43;8.85;;;1.35;;
44366;SDS011;30086;57.660;12.000;2022-09-13T06:46:14;10.98;;;1.33;;
44366;SDS011;30086;57.660;12.000;2022-09-13T06:48:44;6.00;;;1.73;;
44366;SDS011;30086;57.660;12.000;2022-09-13T06:51:11;10.25;;;1.73;;
44366;SDS011;30086;57.660;12.000;2022-09-13T06:53:40;16.70;;;2.15;;
44366;SDS011;30086;57.660;12.000;2022-09-13T06:56:09;10.60;;;1.80;;
44366;SDS011;30086;57.660;12.000;2022-09-13T06:58:35;9.13;;;2.40;;
44366;SDS011;30086;57.660;12.000;2022-09-13T07:03:36;8.70;;;1.60;;
44366;SDS011;30086;57.660;12.000;2022-09-13T07:06:12;10.77;;;1.83;;
44366;SDS011;30086;57.660;12.000;2022-09-13T07:08:39;7.18;;;1.70;;
44366;SDS011;30086;57.660;12.000;2022-09-13T07:11:07;2.53;;;1.08;;
44366;SDS011;30086;57.660;12.000;2022-09-13T07:13:34;12.35;;;1.50;;
44366;SDS011;30086;57.660;12.000;2022-09-13T07:16:01;10.05;;;2.78;;
44366;SDS011;30086;57.660;12.000;2022-09-13T07:18:28;11.90;;;2.38;;
44366;SDS011;30086;57.660;12.000;2022-09-13T07:21:02;12.45;;;1.80;;
44366;SDS011;30086;57.660;12.000;2022-09-13T07:23:30;3.85;;;0.90;;
44366;SDS011;30086;57.660;12.000;2022-09-13T07:25:56;11.27;;;1.55;;
44366;SDS011;30086;57.660;12.000;2022-09-13T07:28:29;6.38;;;1.80;;
44366;SDS011;30086;57.660;12.000;2022-09-13T07:30:56;9.65;;;1.60;;
44366;SDS011;30086;57.660;12.000;2022-09-13T07:33:23;10.32;;;1.45;;
44366;SDS011;30086;57.660;12.000;2022-09-13T07:35:54;10.55;;;2.33;;
44366;SDS011;30086;57.660;12.000;2022-09-13T07:38:25;11.23;;;3.22;;
44366;SDS011;30086;57.660;12.000;2022-09-13T07:40:53;9.18;;;1.42;;
44366;SDS011;30086;57.660;12.000;2022-09-13T07:43:36;9.32;;;2.83;;
44366;SDS011;30086;57.660;12.000;2022-09-13T07:46:26;8.02;;;2.05;;
44366;SDS011;30086;57.660;12.000;2022-09-13T07:48:57;8.35;;;5.03;;
44366;SDS011;30086;57.660;12.000;2022-09-13T07:51:28;8.55;;;2.97;;
44366;SDS011;30086;57.660;12.000;2022-09-13T07:54:15;8.90;;;2.13;;
44366;SDS011;30086;57.660;12.000;2022-09-13T07:56:42;10.45;;;2.05;;
44366;SDS011;30086;57.660;12.000;2022-09-13T07:59:12;5.70;;;1.50;;
44366;SDS011;30086;57.660;12.000;2022-09-13T08:01:40;8.57;;;1.58;;
44366;SDS011;30086;57.660;12.000;2022-09-13T08:04:08;7.88;;;1.85;;
44366;SDS011;30086;57.660;12.000;2022-09-13T08:07:07;10.02;;;1.65;;
44366;SDS011;30086;57.660;12.000;2022-09-13T08:09:54;10.75;;;2.63;;
44366;SDS011;30086;57.660;12.000;2022-09-13T08:12:24;11.65;;;1.75;;
44366;SDS011;30086;57.660;12.000;2022-09-13T08:15:19;8.65;;;2.28;;
44366;SDS011;30086;57.660;12.000;2022-09-13T08:18:09;11.30;;;4.32;;
44366;SDS011;30086;57.660;12.000;2022-09-13T08:21:06;13.48;;;2.92;;
44366;SDS011;30086;57.660;12.000;2022-09-13T08:23:53;10.57;;;4.53;;
44366;SDS011;30086;57.660;12.000;2022-09-13T08:26:41;8.75;;;2.35;;
44366;SDS011;30086;57.660;12.000;2022-09-13T08:29:09;10.52;;;1.95;;
44366;SDS011;30086;57.660;12.000;2022-09-13T08:31:41;13.68;;;5.53;;
44366;SDS011;30086;57.660;12.000;2022-09-13T08:34:15;12.98;;;3.03;;
44366;SDS011;30086;57.660;12.000;2022-09-13T08:37:06;12.10;;;3.95;;
44366;SDS011;30086;57.660;12.000;2022-09-13T08:40:01;8.65;;;2.03;;
44366;SDS011;30086;57.660;12.000;2022-09-13T08:42:30;9.93;;;1.75;;
44366;SDS011;30086;57.660;12.000;2022-09-13T08:45:16;7.47;;;2.08;;
44366;SDS011;30086;57.660;12.000;2022-09-13T08:47:49;7.13;;;2.08;;
44366;SDS011;30086;57.660;12.000;2022-09-13T08:50:21;11.68;;;4.00;;
44366;SDS011;30086;57.660;12.000;2022-09-13T08:58:33;7.10;;;1.15;;
44366;SDS011;30086;57.660;12.000;2022-09-13T09:01:05;7.78;;;1.40;;
44366;SDS011;30086;57.660;12.000;2022-09-13T09:05:58;5.00;;;1.27;;
44366;SDS011;30086;57.660;12.000;2022-09-13T09:11:06;10.55;;;2.67;;
44366;SDS011;30086;57.660;12.000;2022-09-13T09:13:36;8.38;;;2.35;;
44366;SDS011;30086;57.660;12.000;2022-09-13T09:16:12;3.10;;;0.80;;
44366;SDS011;30086;57.660;12.000;2022-09-13T09:18:41;17.77;;;2.72;;
44366;SDS011;30086;57.660;12.000;2022-09-13T09:21:11;8.80;;;1.35;;
44366;SDS011;30086;57.660;12.000;2022-09-13T09:23:40;16.73;;;2.33;;
44366;SDS011;30086;57.660;12.000;2022-09-13T09:26:17;8.60;;;2.47;;
44366;SDS011;30086;57.660;12.000;2022-09-13T09:37:15;12.60;;;2.20;;
44366;SDS011;30086;57.660;12.000;2022-09-13T09:39:52;5.65;;;1.27;;
44366;SDS011;30086;57.660;12.000;2022-09-13T09:42:19;13.35;;;3.85;;
44366;SDS011;30086;57.660;12.000;2022-09-13T09:44:59;22.83;;;6.63;;
44366;SDS011;30086;57.660;12.000;2022-09-13T09:47:28;1.45;;;1.35;;
44366;SDS011;30086;57.660;12.000;2022-09-13T09:52:51;6.13;;;1.15;;
44366;SDS011;30086;57.660;12.000;2022-09-13T09:55:27;15.60;;;1.75;;
44366;SDS011;30086;57.660;12.000;2022-09-13T09:58:04;12.00;;;2.58;;
44366;SDS011;30086;57.660;12.000;2022-09-13T10:00:32;15.93;;;2.10;;
44366;SDS011;30086;57.660;12.000;2022-09-13T10:03:01;25.38;;;2.50;;
44366;SDS011;30086;57.660;12.000;2022-09-13T10:05:29;8.60;;;2.60;;
44366;SDS011;30086;57.660;12.000;2022-09-13T10:08:06;16.75;;;2.20;;
44366;SDS011;30086;57.660;12.000;2022-09-13T10:10:41;25.38;;;2.80;;
44366;SDS011;30086;57.660;12.000;2022-09-13T10:13:18;9.88;;;1.58;;
44366;SDS011;30086;57.660;12.000;2022-09-13T10:15:51;14.45;;;2.00;;
44366;SDS011;30086;57.660;12.000;2022-09-13T10:18:19;18.70;;;1.90;;
44366;SDS011;30086;57.660;12.000;2022-09-13T10:23:35;18.85;;;2.45;;
44366;SDS011;30086;57.660;12.000;2022-09-13T10:26:05;22.20;;;3.10;;
44366;SDS011;30086;57.660;12.000;2022-09-13T10:28:33;16.48;;;3.80;;
44366;SDS011;30086;57.660;12.000;2022-09-13T10:31:04;16.20;;;4.18;;
44366;SDS011;30086;57.660;12.000;2022-09-13T10:33:38;13.55;;;2.50;;
44366;SDS011;30086;57.660;12.000;2022-09-13T10:36:06;10.77;;;2.50;;
44366;SDS011;30086;57.660;12.000;2022-09-13T10:38:40;9.02;;;1.60;;
44366;SDS011;30086;57.660;12.000;2022-09-13T10:41:08;21.85;;;2.75;;
44366;SDS011;30086;57.660;12.000;2022-09-13T10:43:36;15.73;;;3.22;;
44366;SDS011;30086;57.660;12.000;2022-09-13T10:46:35;17.80;;;2.05;;
44366;SDS011;30086;57.660;12.000;2022-09-13T10:51:57;8.88;;;4.28;;
44366;SDS011;30086;57.660;12.000;2022-09-13T10:54:23;9.82;;;3.15;;
44366;SDS011;30086;57.660;12.000;2022-09-13T10:56:50;9.52;;;2.10;;
44366;SDS011;30086;57.660;12.000;2022-09-13T10:59:28;15.70;;;3.40;;
44366;SDS011;30086;57.660;12.000;2022-09-13T11:15:09;15.52;;;2.58;;
44366;SDS011;30086;57.660;12.000;2022-09-13T11:28:04;13.20;;;2.47;;
44366;SDS011;30086;57.660;12.000;2022-09-13T11:30:35;9.75;;;2.10;;
44366;SDS011;30086;57.660;12.000;2022-09-13T11:33:24;9.40;;;1.55;;
44366;SDS011;30086;57.660;12.000;2022-09-13T11:59:59;0.00;;;0.00;;
44366;SDS011;30086;57.660;12.000;2022-09-13T12:02:26;0.00;;;0.00;;
44366;SDS011;30086;57.660;12.000;2022-09-13T12:04:55;12.63;;;2.05;;
44366;SDS011;30086;57.660;12.000;2022-09-13T12:10:17;6.47;;;2.05;;
44366;SDS011;30086;57.660;12.000;2022-09-13T12:12:46;9.85;;;2.80;;
44366;SDS011;30086;57.660;12.000;2022-09-13T12:15:20;6.82;;;2.15;;
44366;SDS011;30086;57.660;12.000;2022-09-13T12:17:48;7.55;;;3.20;;
44366;SDS011;30086;57.660;12.000;2022-09-13T12:20:39;8.18;;;1.83;;
44366;SDS011;30086;57.660;12.000;2022-09-13T12:23:06;8.57;;;7.10;;
44366;SDS011;30086;57.660;12.000;2022-09-13T12:25:40;6.22;;;1.13;;
44366;SDS011;30086;57.660;12.000;2022-09-13T12:28:22;5.15;;;1.05;;
44366;SDS011;30086;57.660;12.000;2022-09-13T12:31:06;6.88;;;1.73;;
44366;SDS011;30086;57.660;12.000;2022-09-13T12:33:42;8.07;;;1.23;;
44366;SDS011;30086;57.660;12.000;2022-09-13T12:36:16;4.50;;;1.05;;
44366;SDS011;30086;57.660;12.000;2022-09-13T12:41:29;3.47;;;2.03;;
44366;SDS011;30086;57.660;12.000;2022-09-13T13:04:59;3.67;;;1.13;;
44366;SDS011;30086;57.660;12.000;2022-09-13T13:07:30;4.97;;;0.90;;
44366;SDS011;30086;57.660;12.000;2022-09-13T13:09:58;2.80;;;0.80;;
44366;SDS011;30086;57.660;12.000;2022-09-13T13:12:42;3.95;;;1.08;;
44366;SDS011;30086;57.660;12.000;2022-09-13T13:23:14;5.55;;;1.40;;
44366;SDS011;30086;57.660;12.000;2022-09-13T13:46:47;5.28;;;1.98;;
44366;SDS011;30086;57.660;12.000;2022-09-13T14:00:11;6.70;;;1.20;;
44366;SDS011;30086;57.660;12.000;2022-09-13T14:15:53;12.77;;;1.98;;
44366;SDS011;30086;57.660;12.000;2022-09-13T14:18:46;7.20;;;1.83;;
44366;SDS011;30086;57.660;12.000;2022-09-13T14:21:26;13.48;;;2.53;;
44366;SDS011;30086;57.660;12.000;2022-09-13T14:24:10;16.48;;;7.32;;
44366;SDS011;30086;57.660;12.000;2022-09-13T14:26:44;10.48;;;2.55;;
44366;SDS011;30086;57.660;12.000;2022-09-13T14:29:12;23.38;;;12.38;;
44366;SDS011;30086;57.660;12.000;2022-09-13T14:31:48;22.42;;;3.55;;
44366;SDS011;30086;57.660;12.000;2022-09-13T14:34:23;22.40;;;4.88;;
44366;SDS011;30086;57.660;12.000;2022-09-13T14:36:56;21.38;;;3.10;;
44366;SDS011;30086;57.660;12.000;2022-09-13T14:39:25;19.25;;;8.27;;
44366;SDS011;30086;57.660;12.000;2022-09-13T14:42:11;13.05;;;2.65;;
44366;SDS011;30086;57.660;12.000;2022-09-13T14:45:00;28.13;;;15.15;;
44366;SDS011;30086;57.660;12.000;2022-09-13T15:01:43;14.05;;;2.65;;
44366;SDS011;30086;57.660;12.000;2022-09-13T15:04:30;20.45;;;2.55;;
44366;SDS011;30086;57.660;12.000;2022-09-13T15:07:15;19.98;;;6.43;;
44366;SDS011;30086;57.660;12.000;2022-09-13T15:09:44;23.58;;;5.90;;
44366;SDS011;30086;57.660;12.000;2022-09-13T15:12:36;23.42;;;7.65;;
44366;SDS011;30086;57.660;12.000;2022-09-13T15:15:36;10.88;;;3.72;;
44366;SDS011;30086;57.660;12.000;2022-09-13T15:21:15;23.38;;;8.38;;
44366;SDS011;30086;57.660;12.000;2022-09-13T15:24:26;24.85;;;5.95;;
44366;SDS011;30086;57.660;12.000;2022-09-13T15:29:22;19.55;;;3.85;;
44366;SDS011;30086;57.660;12.000;2022-09-13T15:31:48;13.60;;;3.15;;
44366;SDS011;30086;57.660;12.000;2022-09-13T15:34:22;21.75;;;5.30;;
44366;SDS011;30086;57.660;12.000;2022-09-13T15:39:48;17.27;;;3.42;;
44366;SDS011;30086;57.660;12.000;2022-09-13T15:42:17;15.30;;;3.97;;
44366;SDS011;30086;57.660;12.000;2022-09-13T15:44:44;20.38;;;3.92;;
44366;SDS011;30086;57.660;12.000;2022-09-13T15:47:16;25.30;;;4.95;;
44366;SDS011;30086;57.660;12.000;2022-09-13T15:50:28;11.02;;;2.95;;
44366;SDS011;30086;57.660;12.000;2022-09-13T15:52:59;22.88;;;8.38;;
44366;SDS011;30086;57.660;12.000;2022-09-13T15:55:45;17.35;;;3.22;;
44366;SDS011;30086;57.660;12.000;2022-09-13T15:58:12;27.42;;;6.60;;
44366;SDS011;30086;57.660;12.000;2022-09-13T16:00:47;18.83;;;4.35;;
44366;SDS011;30086;57.660;12.000;2022-09-13T16:03:17;12.70;;;3.58;;
44366;SDS011;30086;57.660;12.000;2022-09-13T16:05:49;31.25;;;5.53;;
44366;SDS011;30086;57.660;12.000;2022-09-13T16:08:15;25.00;;;15.98;;
44366;SDS011;30086;57.660;12.000;2022-09-13T16:10:43;33.78;;;4.13;;
44366;SDS011;30086;57.660;12.000;2022-09-13T16:13:09;20.40;;;2.83;;
44366;SDS011;30086;57.660;12.000;2022-09-13T16:15:35;14.98;;;3.17;;
44366;SDS011;30086;57.660;12.000;2022-09-13T16:18:01;12.75;;;3.08;;
44366;SDS011;30086;57.660;12.000;2022-09-13T16:20:28;21.27;;;4.18;;
44366;SDS011;30086;57.660;12.000;2022-09-13T16:22:55;12.65;;;3.70;;
44366;SDS011;30086;57.660;12.000;2022-09-13T16:25:22;21.52;;;5.22;;
44366;SDS011;30086;57.660;12.000;2022-09-13T16:27:48;23.60;;;3.80;;
44366;SDS011;30086;57.660;12.000;2022-09-13T16:30:16;23.83;;;3.08;;
44366;SDS011;30086;57.660;12.000;2022-09-13T16:32:45;13.25;;;2.30;;
44366;SDS011;30086;57.660;12.000;2022-09-13T16:35:12;24.08;;;5.80;;
44366;SDS011;30086;57.660;12.000;2022-09-13T16:37:40;15.35;;;7.70;;
44366;SDS011;30086;57.660;12.000;2022-09-13T16:40:08;28.15;;;25.70;;
44366;SDS011;30086;57.660;12.000;2022-09-13T16:42:35;21.02;;;3.75;;
44366;SDS011;30086;57.660;12.000;2022-09-13T16:45:02;14.80;;;3.95;;
44366;SDS011;30086;57.660;12.000;2022-09-13T16:47:33;9.20;;;1.42;;
44366;SDS011;30086;57.660;12.000;2022-09-13T16:50:07;20.77;;;3.35;;
44366;SDS011;30086;57.660;12.000;2022-09-13T16:52:34;15.88;;;3.10;;
44366;SDS011;30086;57.660;12.000;2022-09-13T16:55:01;24.52;;;12.85;;
44366;SDS011;30086;57.660;12.000;2022-09-13T16:57:37;11.35;;;6.85;;
44366;SDS011;30086;57.660;12.000;2022-09-13T17:00:05;15.90;;;4.65;;
44366;SDS011;30086;57.660;12.000;2022-09-13T17:02:36;22.52;;;4.28;;
44366;SDS011;30086;57.660;12.000;2022-09-13T17:05:03;13.93;;;5.30;;
44366;SDS011;30086;57.660;12.000;2022-09-13T17:07:32;14.65;;;4.00;;
44366;SDS011;30086;57.660;12.000;2022-09-13T17:10:02;44.83;;;5.05;;
44366;SDS011;30086;57.660;12.000;2022-09-13T17:12:30;42.17;;;38.22;;
44366;SDS011;30086;57.660;12.000;2022-09-13T17:14:56;14.07;;;4.97;;
44366;SDS011;30086;57.660;12.000;2022-09-13T17:17:23;20.45;;;3.83;;
44366;SDS011;30086;57.660;12.000;2022-09-13T17:20:03;15.60;;;3.13;;
44366;SDS011;30086;57.660;12.000;2022-09-13T17:22:33;9.15;;;2.20;;
44366;SDS011;30086;57.660;12.000;2022-09-13T17:25:01;13.68;;;2.42;;
44366;SDS011;30086;57.660;12.000;2022-09-13T17:27:47;13.30;;;3.05;;
44366;SDS011;30086;57.660;12.000;2022-09-13T17:30:25;17.05;;;3.80;;
44366;SDS011;30086;57.660;12.000;2022-09-13T17:32:53;14.50;;;3.83;;
44366;SDS011;30086;57.660;12.000;2022-09-13T17:35:30;14.75;;;3.08;;
44366;SDS011;30086;57.660;12.000;2022-09-13T17:38:01;18.95;;;3.33;;
44366;SDS011;30086;57.660;12.000;2022-09-13T17:40:30;30.38;;;7.55;;
44366;SDS011;30086;57.660;12.000;2022-09-13T17:43:15;17.73;;;6.18;;
44366;SDS011;30086;57.660;12.000;2022-09-13T17:45:47;16.13;;;5.22;;
44366;SDS011;30086;57.660;12.000;2022-09-13T17:48:15;18.52;;;3.33;;
44366;SDS011;30086;57.660;12.000;2022-09-13T17:50:41;20.77;;;4.18;;
44366;SDS011;30086;57.660;12.000;2022-09-13T17:53:07;15.55;;;2.90;;
44366;SDS011;30086;57.660;12.000;2022-09-13T17:55:48;26.10;;;4.90;;
44366;SDS011;30086;57.660;12.000;2022-09-13T17:58:14;19.92;;;6.95;;
44366;SDS011;30086;57.660;12.000;2022-09-13T18:00:45;18.85;;;5.35;;
44366;SDS011;30086;57.660;12.000;2022-09-13T18:03:12;4.78;;;2.40;;
44366;SDS011;30086;57.660;12.000;2022-09-13T18:05:38;20.25;;;4.28;;
44366;SDS011;30086;57.660;12.000;2022-09-13T18:08:12;17.75;;;4.03;;
44366;SDS011;30086;57.660;12.000;2022-09-13T18:10:43;20.33;;;3.63;;
44366;SDS011;30086;57.660;12.000;2022-09-13T18:13:09;17.88;;;2.20;;
44366;SDS011;30086;57.660;12.000;2022-09-13T18:15:41;11.90;;;1.92;;
44366;SDS011;30086;57.660;12.000;2022-09-13T18:18:20;20.67;;;4.80;;
44366;SDS011;30086;57.660;12.000;2022-09-13T18:20:47;15.77;;;3.53;;
44366;SDS011;30086;57.660;12.000;2022-09-13T18:23:13;18.52;;;4.55;;
44366;SDS011;30086;57.660;12.000;2022-09-13T18:25:39;13.00;;;2.83;;
44366;SDS011;30086;57.660;12.000;2022-09-13T18:28:07;13.95;;;4.70;;
44366;SDS011;30086;57.660;12.000;2022-09-13T18:30:49;17.08;;;4.47;;
44366;SDS011;30086;57.660;12.000;2022-09-13T18:33:16;19.05;;;6.10;;
44366;SDS011;30086;57.660;12.000;2022-09-13T18:35:53;17.73;;;2.92;;